sensor_id;sensor_type;location;lat;lon;timestamp;P1;durP1;ratioP1;P2;durP2;ratioP2
76127;SDS011;64873;50.102;14.434;2023-04-25T00:01:05;4.43;;;2.15;;
76127;SDS011;64873;50.102;14.434;2023-04-25T00:03:34;3.22;;;1.70;;
76127;SDS011;64873;50.102;14.434;2023-04-25T00:06:00;2.85;;;1.77;;
76127;SDS011;64873;50.102;14.434;2023-04-25T00:08:27;3.15;;;1.85;;
76127;SDS011;64873;50.102;14.434;2023-04-25T00:10:52;3.20;;;1.90;;
76127;SDS011;64873;50.102;14.434;2023-04-25T00:13:18;4.50;;;1.92;;
76127;SDS011;64873;50.102;14.434;2023-04-25T00:15:44;2.78;;;2.00;;
76127;SDS011;64873;50.102;14.434;2023-04-25T00:18:11;4.57;;;2.30;;
76127;SDS011;64873;50.102;14.434;2023-04-25T00:20:36;4.57;;;2.17;;
76127;SDS011;64873;50.102;14.434;2023-04-25T00:23:02;5.60;;;2.22;;
76127;SDS011;64873;50.102;14.434;2023-04-25T00:25:27;4.60;;;1.90;;
76127;SDS011;64873;50.102;14.434;2023-04-25T00:27:53;3.97;;;2.28;;
76127;SDS011;64873;50.102;14.434;2023-04-25T00:30:19;4.63;;;2.33;;
76127;SDS011;64873;50.102;14.434;2023-04-25T00:32:44;4.55;;;2.10;;
76127;SDS011;64873;50.102;14.434;2023-04-25T00:35:11;3.72;;;2.17;;
76127;SDS011;64873;50.102;14.434;2023-04-25T00:37:36;4.60;;;1.98;;
76127;SDS011;64873;50.102;14.434;2023-04-25T00:40:04;4.55;;;2.40;;
76127;SDS011;64873;50.102;14.434;2023-04-25T00:42:31;4.55;;;2.15;;
76127;SDS011;64873;50.102;14.434;2023-04-25T00:44:58;2.97;;;1.92;;
76127;SDS011;64873;50.102;14.434;2023-04-25T00:47:25;4.47;;;2.28;;
76127;SDS011;64873;50.102;14.434;2023-04-25T00:49:50;2.47;;;1.85;;
76127;SDS011;64873;50.102;14.434;2023-04-25T00:52:18;4.65;;;2.35;;
76127;SDS011;64873;50.102;14.434;2023-04-25T00:54:44;3.85;;;2.03;;
76127;SDS011;64873;50.102;14.434;2023-04-25T00:57:10;4.65;;;2.05;;
76127;SDS011;64873;50.102;14.434;2023-04-25T00:59:36;5.90;;;2.65;;
76127;SDS011;64873;50.102;14.434;2023-04-25T01:02:03;3.63;;;2.08;;
76127;SDS011;64873;50.102;14.434;2023-04-25T01:04:29;4.03;;;2.17;;
76127;SDS011;64873;50.102;14.434;2023-04-25T01:06:55;3.08;;;2.00;;
76127;SDS011;64873;50.102;14.434;2023-04-25T01:09:20;5.82;;;2.08;;
76127;SDS011;64873;50.102;14.434;2023-04-25T01:11:47;3.53;;;2.08;;
76127;SDS011;64873;50.102;14.434;2023-04-25T01:14:13;4.70;;;2.05;;
76127;SDS011;64873;50.102;14.434;2023-04-25T01:16:39;2.92;;;2.17;;
76127;SDS011;64873;50.102;14.434;2023-04-25T01:19:07;3.97;;;2.47;;
76127;SDS011;64873;50.102;14.434;2023-04-25T01:21:38;3.95;;;2.65;;
76127;SDS011;64873;50.102;14.434;2023-04-25T01:24:04;3.67;;;2.30;;
76127;SDS011;64873;50.102;14.434;2023-04-25T01:26:30;5.00;;;2.85;;
76127;SDS011;64873;50.102;14.434;2023-04-25T01:28:56;7.05;;;2.30;;
76127;SDS011;64873;50.102;14.434;2023-04-25T01:31:22;5.95;;;2.65;;
76127;SDS011;64873;50.102;14.434;2023-04-25T01:33:47;7.57;;;3.45;;
76127;SDS011;64873;50.102;14.434;2023-04-25T01:36:13;5.10;;;2.70;;
76127;SDS011;64873;50.102;14.434;2023-04-25T01:38:40;5.80;;;2.63;;
76127;SDS011;64873;50.102;14.434;2023-04-25T01:41:06;4.07;;;2.75;;
76127;SDS011;64873;50.102;14.434;2023-04-25T01:43:32;6.28;;;2.75;;
76127;SDS011;64873;50.102;14.434;2023-04-25T01:45:57;6.10;;;2.83;;
76127;SDS011;64873;50.102;14.434;2023-04-25T01:48:23;6.88;;;3.10;;
76127;SDS011;64873;50.102;14.434;2023-04-25T01:50:49;6.03;;;3.17;;
76127;SDS011;64873;50.102;14.434;2023-04-25T01:53:15;4.13;;;2.70;;
76127;SDS011;64873;50.102;14.434;2023-04-25T01:55:40;3.60;;;2.45;;
76127;SDS011;64873;50.102;14.434;2023-04-25T01:58:06;4.70;;;3.00;;
76127;SDS011;64873;50.102;14.434;2023-04-25T02:00:35;9.00;;;3.20;;
76127;SDS011;64873;50.102;14.434;2023-04-25T02:03:03;8.38;;;3.17;;
76127;SDS011;64873;50.102;14.434;2023-04-25T02:05:33;8.75;;;2.88;;
76127;SDS011;64873;50.102;14.434;2023-04-25T02:08:00;4.63;;;3.05;;
76127;SDS011;64873;50.102;14.434;2023-04-25T02:10:26;6.50;;;3.53;;
76127;SDS011;64873;50.102;14.434;2023-04-25T02:12:51;5.28;;;3.15;;
76127;SDS011;64873;50.102;14.434;2023-04-25T02:15:16;5.07;;;3.20;;
76127;SDS011;64873;50.102;14.434;2023-04-25T02:17:42;6.18;;;3.17;;
76127;SDS011;64873;50.102;14.434;2023-04-25T02:20:07;4.75;;;3.20;;
76127;SDS011;64873;50.102;14.434;2023-04-25T02:22:33;5.32;;;3.00;;
76127;SDS011;64873;50.102;14.434;2023-04-25T02:25:00;5.55;;;3.30;;
76127;SDS011;64873;50.102;14.434;2023-04-25T02:27:26;6.45;;;3.47;;
76127;SDS011;64873;50.102;14.434;2023-04-25T02:29:51;5.78;;;3.65;;
76127;SDS011;64873;50.102;14.434;2023-04-25T02:32:16;4.93;;;3.20;;
76127;SDS011;64873;50.102;14.434;2023-04-25T02:34:42;5.55;;;3.03;;
76127;SDS011;64873;50.102;14.434;2023-04-25T02:37:07;5.50;;;3.25;;
76127;SDS011;64873;50.102;14.434;2023-04-25T02:39:34;5.88;;;3.17;;
76127;SDS011;64873;50.102;14.434;2023-04-25T02:41:59;5.38;;;3.15;;
76127;SDS011;64873;50.102;14.434;2023-04-25T02:44:26;7.57;;;3.40;;
76127;SDS011;64873;50.102;14.434;2023-04-25T02:46:51;5.13;;;3.22;;
76127;SDS011;64873;50.102;14.434;2023-04-25T02:49:16;5.25;;;3.42;;
76127;SDS011;64873;50.102;14.434;2023-04-25T02:51:42;7.88;;;4.10;;
76127;SDS011;64873;50.102;14.434;2023-04-25T02:54:07;6.55;;;3.40;;
76127;SDS011;64873;50.102;14.434;2023-04-25T02:56:33;5.40;;;3.60;;
76127;SDS011;64873;50.102;14.434;2023-04-25T02:58:58;7.80;;;4.00;;
76127;SDS011;64873;50.102;14.434;2023-04-25T03:01:24;5.82;;;3.88;;
76127;SDS011;64873;50.102;14.434;2023-04-25T03:03:49;7.15;;;3.50;;
76127;SDS011;64873;50.102;14.434;2023-04-25T03:06:15;5.63;;;3.60;;
76127;SDS011;64873;50.102;14.434;2023-04-25T03:08:40;6.82;;;3.83;;
76127;SDS011;64873;50.102;14.434;2023-04-25T03:11:06;7.90;;;3.95;;
76127;SDS011;64873;50.102;14.434;2023-04-25T03:13:31;8.27;;;3.85;;
76127;SDS011;64873;50.102;14.434;2023-04-25T03:15:57;5.63;;;3.75;;
76127;SDS011;64873;50.102;14.434;2023-04-25T03:18:22;6.90;;;3.83;;
76127;SDS011;64873;50.102;14.434;2023-04-25T03:20:48;6.57;;;3.65;;
76127;SDS011;64873;50.102;14.434;2023-04-25T03:23:13;4.50;;;3.33;;
76127;SDS011;64873;50.102;14.434;2023-04-25T03:25:39;7.90;;;4.18;;
76127;SDS011;64873;50.102;14.434;2023-04-25T03:28:05;6.50;;;3.85;;
76127;SDS011;64873;50.102;14.434;2023-04-25T03:30:30;9.40;;;4.50;;
76127;SDS011;64873;50.102;14.434;2023-04-25T03:32:56;5.15;;;3.42;;
76127;SDS011;64873;50.102;14.434;2023-04-25T03:35:21;5.80;;;3.65;;
76127;SDS011;64873;50.102;14.434;2023-04-25T03:37:48;8.15;;;4.63;;
76127;SDS011;64873;50.102;14.434;2023-04-25T03:40:14;9.30;;;4.43;;
76127;SDS011;64873;50.102;14.434;2023-04-25T03:42:39;8.10;;;4.57;;
76127;SDS011;64873;50.102;14.434;2023-04-25T03:45:06;7.28;;;4.35;;
76127;SDS011;64873;50.102;14.434;2023-04-25T03:47:33;6.05;;;4.30;;
76127;SDS011;64873;50.102;14.434;2023-04-25T03:49:58;6.60;;;4.18;;
76127;SDS011;64873;50.102;14.434;2023-04-25T03:52:25;9.38;;;4.45;;
76127;SDS011;64873;50.102;14.434;2023-04-25T03:54:51;9.90;;;4.47;;
76127;SDS011;64873;50.102;14.434;2023-04-25T03:57:16;8.07;;;3.97;;
76127;SDS011;64873;50.102;14.434;2023-04-25T03:59:41;6.20;;;4.32;;
76127;SDS011;64873;50.102;14.434;2023-04-25T04:02:07;8.02;;;4.32;;
76127;SDS011;64873;50.102;14.434;2023-04-25T04:04:32;10.18;;;5.53;;
76127;SDS011;64873;50.102;14.434;2023-04-25T04:06:58;8.45;;;4.60;;
76127;SDS011;64873;50.102;14.434;2023-04-25T04:09:23;6.85;;;4.18;;
76127;SDS011;64873;50.102;14.434;2023-04-25T04:11:49;6.35;;;4.15;;
76127;SDS011;64873;50.102;14.434;2023-04-25T04:14:14;6.95;;;3.88;;
76127;SDS011;64873;50.102;14.434;2023-04-25T04:16:40;8.98;;;4.28;;
76127;SDS011;64873;50.102;14.434;2023-04-25T04:19:05;10.30;;;3.90;;
76127;SDS011;64873;50.102;14.434;2023-04-25T04:21:30;5.93;;;4.22;;
76127;SDS011;64873;50.102;14.434;2023-04-25T04:23:57;5.97;;;3.97;;
76127;SDS011;64873;50.102;14.434;2023-04-25T04:26:22;7.15;;;4.05;;
76127;SDS011;64873;50.102;14.434;2023-04-25T04:28:48;6.60;;;4.18;;
76127;SDS011;64873;50.102;14.434;2023-04-25T04:31:16;12.00;;;4.53;;
76127;SDS011;64873;50.102;14.434;2023-04-25T04:33:43;8.35;;;3.88;;
76127;SDS011;64873;50.102;14.434;2023-04-25T04:36:09;7.80;;;4.18;;
76127;SDS011;64873;50.102;14.434;2023-04-25T04:38:35;7.63;;;3.97;;
76127;SDS011;64873;50.102;14.434;2023-04-25T04:41:01;8.32;;;4.32;;
76127;SDS011;64873;50.102;14.434;2023-04-25T04:43:27;7.22;;;4.35;;
76127;SDS011;64873;50.102;14.434;2023-04-25T04:45:53;7.30;;;4.25;;
76127;SDS011;64873;50.102;14.434;2023-04-25T04:48:21;8.65;;;4.25;;
76127;SDS011;64873;50.102;14.434;2023-04-25T04:50:46;6.20;;;4.13;;
76127;SDS011;64873;50.102;14.434;2023-04-25T04:53:12;9.57;;;4.85;;
76127;SDS011;64873;50.102;14.434;2023-04-25T04:55:38;7.88;;;4.32;;
76127;SDS011;64873;50.102;14.434;2023-04-25T04:58:03;6.78;;;4.07;;
76127;SDS011;64873;50.102;14.434;2023-04-25T05:00:29;6.70;;;4.28;;
76127;SDS011;64873;50.102;14.434;2023-04-25T05:02:55;7.30;;;4.20;;
76127;SDS011;64873;50.102;14.434;2023-04-25T05:05:21;8.43;;;5.22;;
76127;SDS011;64873;50.102;14.434;2023-04-25T05:07:46;6.97;;;4.63;;
76127;SDS011;64873;50.102;14.434;2023-04-25T05:10:12;8.57;;;4.63;;
76127;SDS011;64873;50.102;14.434;2023-04-25T05:12:37;8.82;;;5.20;;
76127;SDS011;64873;50.102;14.434;2023-04-25T05:15:03;7.97;;;4.85;;
76127;SDS011;64873;50.102;14.434;2023-04-25T05:17:29;11.50;;;5.05;;
76127;SDS011;64873;50.102;14.434;2023-04-25T05:19:54;9.65;;;5.32;;
76127;SDS011;64873;50.102;14.434;2023-04-25T05:22:20;9.10;;;5.20;;
76127;SDS011;64873;50.102;14.434;2023-04-25T05:24:45;7.70;;;4.90;;
76127;SDS011;64873;50.102;14.434;2023-04-25T05:27:11;7.85;;;4.93;;
76127;SDS011;64873;50.102;14.434;2023-04-25T05:29:36;10.55;;;5.38;;
76127;SDS011;64873;50.102;14.434;2023-04-25T05:32:02;10.40;;;4.57;;
76127;SDS011;64873;50.102;14.434;2023-04-25T05:34:27;10.85;;;5.03;;
76127;SDS011;64873;50.102;14.434;2023-04-25T05:36:53;8.75;;;4.65;;
76127;SDS011;64873;50.102;14.434;2023-04-25T05:39:18;7.82;;;4.85;;
76127;SDS011;64873;50.102;14.434;2023-04-25T05:41:44;16.38;;;5.40;;
76127;SDS011;64873;50.102;14.434;2023-04-25T05:44:09;9.70;;;4.80;;
76127;SDS011;64873;50.102;14.434;2023-04-25T05:46:35;6.93;;;4.15;;
76127;SDS011;64873;50.102;14.434;2023-04-25T05:49:01;9.38;;;4.57;;
76127;SDS011;64873;50.102;14.434;2023-04-25T05:51:26;7.72;;;4.45;;
76127;SDS011;64873;50.102;14.434;2023-04-25T05:53:52;9.05;;;4.57;;
76127;SDS011;64873;50.102;14.434;2023-04-25T05:56:18;10.77;;;5.38;;
76127;SDS011;64873;50.102;14.434;2023-04-25T05:58:43;7.18;;;4.57;;
76127;SDS011;64873;50.102;14.434;2023-04-25T06:01:09;11.45;;;4.13;;
76127;SDS011;64873;50.102;14.434;2023-04-25T06:03:34;9.60;;;5.05;;
76127;SDS011;64873;50.102;14.434;2023-04-25T06:06:00;7.28;;;4.05;;
76127;SDS011;64873;50.102;14.434;2023-04-25T06:08:25;8.02;;;4.97;;
76127;SDS011;64873;50.102;14.434;2023-04-25T06:10:51;8.85;;;4.47;;
76127;SDS011;64873;50.102;14.434;2023-04-25T06:13:16;14.80;;;4.90;;
76127;SDS011;64873;50.102;14.434;2023-04-25T06:15:41;6.55;;;4.43;;
76127;SDS011;64873;50.102;14.434;2023-04-25T06:18:07;8.65;;;4.47;;
76127;SDS011;64873;50.102;14.434;2023-04-25T06:20:33;10.93;;;4.45;;
76127;SDS011;64873;50.102;14.434;2023-04-25T06:22:58;5.70;;;4.00;;
76127;SDS011;64873;50.102;14.434;2023-04-25T06:25:24;12.25;;;4.88;;
76127;SDS011;64873;50.102;14.434;2023-04-25T06:27:49;8.07;;;4.50;;
76127;SDS011;64873;50.102;14.434;2023-04-25T06:30:15;14.63;;;4.10;;
76127;SDS011;64873;50.102;14.434;2023-04-25T06:32:43;8.15;;;4.68;;
76127;SDS011;64873;50.102;14.434;2023-04-25T06:35:08;10.43;;;4.50;;
76127;SDS011;64873;50.102;14.434;2023-04-25T06:37:34;7.65;;;4.20;;
76127;SDS011;64873;50.102;14.434;2023-04-25T06:39:59;8.77;;;4.60;;
76127;SDS011;64873;50.102;14.434;2023-04-25T06:42:25;6.43;;;4.18;;
76127;SDS011;64873;50.102;14.434;2023-04-25T06:44:50;6.45;;;4.03;;
76127;SDS011;64873;50.102;14.434;2023-04-25T06:47:16;8.23;;;4.47;;
76127;SDS011;64873;50.102;14.434;2023-04-25T06:49:41;7.80;;;4.85;;
76127;SDS011;64873;50.102;14.434;2023-04-25T06:52:07;8.05;;;4.55;;
76127;SDS011;64873;50.102;14.434;2023-04-25T06:54:32;7.22;;;3.95;;
76127;SDS011;64873;50.102;14.434;2023-04-25T06:56:57;6.00;;;4.30;;
76127;SDS011;64873;50.102;14.434;2023-04-25T06:59:23;7.68;;;4.68;;
76127;SDS011;64873;50.102;14.434;2023-04-25T07:01:48;9.77;;;4.85;;
76127;SDS011;64873;50.102;14.434;2023-04-25T07:04:14;25.52;;;5.60;;
76127;SDS011;64873;50.102;14.434;2023-04-25T07:06:39;14.07;;;4.93;;
76127;SDS011;64873;50.102;14.434;2023-04-25T07:09:10;11.50;;;4.40;;
76127;SDS011;64873;50.102;14.434;2023-04-25T07:11:36;6.82;;;4.32;;
76127;SDS011;64873;50.102;14.434;2023-04-25T07:14:02;9.95;;;4.72;;
76127;SDS011;64873;50.102;14.434;2023-04-25T07:16:27;7.47;;;4.82;;
76127;SDS011;64873;50.102;14.434;2023-04-25T07:18:53;9.30;;;4.63;;
76127;SDS011;64873;50.102;14.434;2023-04-25T07:21:19;15.52;;;5.72;;
76127;SDS011;64873;50.102;14.434;2023-04-25T07:23:44;8.60;;;4.75;;
76127;SDS011;64873;50.102;14.434;2023-04-25T07:26:10;5.78;;;4.13;;
76127;SDS011;64873;50.102;14.434;2023-04-25T07:28:35;8.45;;;5.15;;
76127;SDS011;64873;50.102;14.434;2023-04-25T07:31:01;10.02;;;4.90;;
76127;SDS011;64873;50.102;14.434;2023-04-25T07:33:26;11.20;;;4.53;;
76127;SDS011;64873;50.102;14.434;2023-04-25T07:35:52;7.82;;;4.43;;
76127;SDS011;64873;50.102;14.434;2023-04-25T07:38:18;7.03;;;4.55;;
76127;SDS011;64873;50.102;14.434;2023-04-25T07:40:43;9.05;;;4.35;;
76127;SDS011;64873;50.102;14.434;2023-04-25T07:43:09;7.07;;;4.35;;
76127;SDS011;64873;50.102;14.434;2023-04-25T07:45:37;10.80;;;4.50;;
76127;SDS011;64873;50.102;14.434;2023-04-25T07:48:02;9.18;;;3.97;;
76127;SDS011;64873;50.102;14.434;2023-04-25T07:50:28;7.28;;;4.07;;
76127;SDS011;64873;50.102;14.434;2023-04-25T07:52:53;5.93;;;4.32;;
76127;SDS011;64873;50.102;14.434;2023-04-25T07:55:19;5.18;;;3.53;;
76127;SDS011;64873;50.102;14.434;2023-04-25T07:57:44;6.10;;;3.80;;
76127;SDS011;64873;50.102;14.434;2023-04-25T08:00:09;8.35;;;4.97;;
76127;SDS011;64873;50.102;14.434;2023-04-25T08:02:36;5.88;;;3.83;;
76127;SDS011;64873;50.102;14.434;2023-04-25T08:05:02;5.95;;;3.88;;
76127;SDS011;64873;50.102;14.434;2023-04-25T08:07:27;6.65;;;3.70;;
76127;SDS011;64873;50.102;14.434;2023-04-25T08:09:53;7.45;;;3.45;;
76127;SDS011;64873;50.102;14.434;2023-04-25T08:12:19;7.88;;;3.65;;
76127;SDS011;64873;50.102;14.434;2023-04-25T08:14:45;4.95;;;3.72;;
76127;SDS011;64873;50.102;14.434;2023-04-25T08:17:10;6.13;;;4.00;;
76127;SDS011;64873;50.102;14.434;2023-04-25T08:19:36;7.00;;;3.50;;
76127;SDS011;64873;50.102;14.434;2023-04-25T08:22:01;5.07;;;3.72;;
76127;SDS011;64873;50.102;14.434;2023-04-25T08:24:27;10.90;;;3.45;;
76127;SDS011;64873;50.102;14.434;2023-04-25T08:26:52;5.95;;;3.65;;
76127;SDS011;64873;50.102;14.434;2023-04-25T08:29:18;8.50;;;3.95;;
76127;SDS011;64873;50.102;14.434;2023-04-25T08:31:44;4.18;;;2.97;;
76127;SDS011;64873;50.102;14.434;2023-04-25T08:34:10;6.00;;;3.80;;
76127;SDS011;64873;50.102;14.434;2023-04-25T08:36:36;6.97;;;3.90;;
76127;SDS011;64873;50.102;14.434;2023-04-25T08:39:01;5.70;;;3.60;;
76127;SDS011;64873;50.102;14.434;2023-04-25T08:41:27;4.72;;;3.33;;
76127;SDS011;64873;50.102;14.434;2023-04-25T08:43:53;5.90;;;3.50;;
76127;SDS011;64873;50.102;14.434;2023-04-25T08:46:20;5.95;;;3.47;;
76127;SDS011;64873;50.102;14.434;2023-04-25T08:48:48;5.95;;;3.08;;
76127;SDS011;64873;50.102;14.434;2023-04-25T08:51:18;5.32;;;3.67;;
76127;SDS011;64873;50.102;14.434;2023-04-25T08:53:48;7.80;;;3.97;;
76127;SDS011;64873;50.102;14.434;2023-04-25T08:56:16;4.75;;;3.17;;
76127;SDS011;64873;50.102;14.434;2023-04-25T08:58:50;5.00;;;3.40;;
76127;SDS011;64873;50.102;14.434;2023-04-25T09:01:16;5.25;;;3.17;;
76127;SDS011;64873;50.102;14.434;2023-04-25T09:03:42;3.50;;;2.63;;
76127;SDS011;64873;50.102;14.434;2023-04-25T09:06:10;5.05;;;2.72;;
76127;SDS011;64873;50.102;14.434;2023-04-25T09:08:36;6.57;;;3.28;;
76127;SDS011;64873;50.102;14.434;2023-04-25T09:11:02;5.65;;;2.90;;
76127;SDS011;64873;50.102;14.434;2023-04-25T09:13:28;6.85;;;3.13;;
76127;SDS011;64873;50.102;14.434;2023-04-25T09:15:55;6.43;;;3.22;;
76127;SDS011;64873;50.102;14.434;2023-04-25T09:18:22;7.18;;;3.55;;
76127;SDS011;64873;50.102;14.434;2023-04-25T09:20:55;4.63;;;3.03;;
76127;SDS011;64873;50.102;14.434;2023-04-25T09:23:23;7.82;;;3.45;;
76127;SDS011;64873;50.102;14.434;2023-04-25T09:25:49;8.82;;;3.40;;
76127;SDS011;64873;50.102;14.434;2023-04-25T09:28:22;5.60;;;3.40;;
76127;SDS011;64873;50.102;14.434;2023-04-25T09:30:50;10.07;;;4.03;;
76127;SDS011;64873;50.102;14.434;2023-04-25T09:33:20;7.13;;;3.83;;
76127;SDS011;64873;50.102;14.434;2023-04-25T09:35:45;7.13;;;2.67;;
76127;SDS011;64873;50.102;14.434;2023-04-25T09:38:12;6.13;;;3.30;;
76127;SDS011;64873;50.102;14.434;2023-04-25T09:40:39;4.60;;;2.67;;
76127;SDS011;64873;50.102;14.434;2023-04-25T09:43:09;5.03;;;2.70;;
76127;SDS011;64873;50.102;14.434;2023-04-25T09:45:43;4.55;;;3.00;;
76127;SDS011;64873;50.102;14.434;2023-04-25T09:48:11;5.07;;;3.05;;
76127;SDS011;64873;50.102;14.434;2023-04-25T09:50:38;14.65;;;7.68;;
76127;SDS011;64873;50.102;14.434;2023-04-25T09:53:04;32.25;;;14.57;;
76127;SDS011;64873;50.102;14.434;2023-04-25T09:55:31;8.98;;;5.10;;
76127;SDS011;64873;50.102;14.434;2023-04-25T09:57:59;4.15;;;2.70;;
76127;SDS011;64873;50.102;14.434;2023-04-25T10:00:33;8.50;;;4.20;;
76127;SDS011;64873;50.102;14.434;2023-04-25T10:03:00;9.30;;;4.53;;
76127;SDS011;64873;50.102;14.434;2023-04-25T10:05:29;6.13;;;3.33;;
76127;SDS011;64873;50.102;14.434;2023-04-25T10:07:57;8.27;;;5.03;;
76127;SDS011;64873;50.102;14.434;2023-04-25T10:10:27;10.05;;;4.82;;
76127;SDS011;64873;50.102;14.434;2023-04-25T10:12:53;20.55;;;10.52;;
76127;SDS011;64873;50.102;14.434;2023-04-25T10:15:19;16.42;;;8.20;;
76127;SDS011;64873;50.102;14.434;2023-04-25T10:17:46;11.80;;;6.82;;
76127;SDS011;64873;50.102;14.434;2023-04-25T10:20:13;10.27;;;6.45;;
76127;SDS011;64873;50.102;14.434;2023-04-25T10:22:41;8.32;;;5.85;;
76127;SDS011;64873;50.102;14.434;2023-04-25T10:25:09;7.05;;;4.78;;
76127;SDS011;64873;50.102;14.434;2023-04-25T10:27:35;7.97;;;4.72;;
76127;SDS011;64873;50.102;14.434;2023-04-25T10:32:30;6.63;;;3.05;;
76127;SDS011;64873;50.102;14.434;2023-04-25T10:34:56;5.00;;;3.15;;
76127;SDS011;64873;50.102;14.434;2023-04-25T10:37:21;5.15;;;3.38;;
76127;SDS011;64873;50.102;14.434;2023-04-25T10:39:47;7.95;;;3.10;;
76127;SDS011;64873;50.102;14.434;2023-04-25T10:42:12;4.45;;;2.60;;
76127;SDS011;64873;50.102;14.434;2023-04-25T10:44:38;5.03;;;2.85;;
76127;SDS011;64873;50.102;14.434;2023-04-25T10:47:06;5.55;;;3.08;;
76127;SDS011;64873;50.102;14.434;2023-04-25T10:49:37;4.20;;;2.50;;
76127;SDS011;64873;50.102;14.434;2023-04-25T10:54:46;4.05;;;2.35;;
76127;SDS011;64873;50.102;14.434;2023-04-25T10:57:32;4.07;;;2.58;;
76127;SDS011;64873;50.102;14.434;2023-04-25T11:00:05;6.80;;;3.53;;
76127;SDS011;64873;50.102;14.434;2023-04-25T11:02:31;5.47;;;1.98;;
76127;SDS011;64873;50.102;14.434;2023-04-25T11:04:57;4.20;;;2.70;;
76127;SDS011;64873;50.102;14.434;2023-04-25T11:07:34;4.38;;;3.10;;
76127;SDS011;64873;50.102;14.434;2023-04-25T11:10:04;9.05;;;3.22;;
76127;SDS011;64873;50.102;14.434;2023-04-25T11:12:30;6.05;;;3.70;;
76127;SDS011;64873;50.102;14.434;2023-04-25T11:15:03;4.43;;;3.20;;
76127;SDS011;64873;50.102;14.434;2023-04-25T11:17:30;4.50;;;3.28;;
76127;SDS011;64873;50.102;14.434;2023-04-25T11:20:00;6.45;;;3.80;;
76127;SDS011;64873;50.102;14.434;2023-04-25T11:22:26;7.38;;;3.88;;
76127;SDS011;64873;50.102;14.434;2023-04-25T11:24:52;11.18;;;3.40;;
76127;SDS011;64873;50.102;14.434;2023-04-25T11:27:18;4.70;;;3.85;;
76127;SDS011;64873;50.102;14.434;2023-04-25T11:29:43;7.43;;;3.75;;
76127;SDS011;64873;50.102;14.434;2023-04-25T11:32:11;7.97;;;4.00;;
76127;SDS011;64873;50.102;14.434;2023-04-25T11:34:37;4.25;;;3.10;;
76127;SDS011;64873;50.102;14.434;2023-04-25T11:37:02;7.70;;;3.83;;
76127;SDS011;64873;50.102;14.434;2023-04-25T11:39:29;7.20;;;3.25;;
76127;SDS011;64873;50.102;14.434;2023-04-25T11:41:55;5.22;;;2.92;;
76127;SDS011;64873;50.102;14.434;2023-04-25T11:44:21;5.80;;;2.88;;
76127;SDS011;64873;50.102;14.434;2023-04-25T11:46:47;4.05;;;2.15;;
76127;SDS011;64873;50.102;14.434;2023-04-25T11:49:13;3.65;;;2.40;;
76127;SDS011;64873;50.102;14.434;2023-04-25T11:51:40;4.15;;;2.50;;
76127;SDS011;64873;50.102;14.434;2023-04-25T11:54:08;5.35;;;2.80;;
76127;SDS011;64873;50.102;14.434;2023-04-25T11:56:33;7.80;;;3.42;;
76127;SDS011;64873;50.102;14.434;2023-04-25T11:59:00;4.30;;;2.45;;
76127;SDS011;64873;50.102;14.434;2023-04-25T12:01:34;4.03;;;2.60;;
76127;SDS011;64873;50.102;14.434;2023-04-25T12:04:12;3.55;;;1.98;;
76127;SDS011;64873;50.102;14.434;2023-04-25T12:06:46;5.63;;;2.50;;
76127;SDS011;64873;50.102;14.434;2023-04-25T12:09:13;5.78;;;2.80;;
76127;SDS011;64873;50.102;14.434;2023-04-25T12:11:44;7.47;;;2.97;;
76127;SDS011;64873;50.102;14.434;2023-04-25T12:14:11;6.30;;;3.13;;
76127;SDS011;64873;50.102;14.434;2023-04-25T12:16:44;5.20;;;2.72;;
76127;SDS011;64873;50.102;14.434;2023-04-25T12:19:13;6.10;;;2.67;;
76127;SDS011;64873;50.102;14.434;2023-04-25T12:21:39;6.70;;;2.78;;
76127;SDS011;64873;50.102;14.434;2023-04-25T12:26:50;15.15;;;3.45;;
76127;SDS011;64873;50.102;14.434;2023-04-25T12:29:19;6.45;;;2.35;;
76127;SDS011;64873;50.102;14.434;2023-04-25T12:31:47;4.95;;;2.65;;
76127;SDS011;64873;50.102;14.434;2023-04-25T12:34:13;4.45;;;2.55;;
76127;SDS011;64873;50.102;14.434;2023-04-25T12:36:39;6.22;;;2.50;;
76127;SDS011;64873;50.102;14.434;2023-04-25T12:39:05;5.32;;;2.40;;
76127;SDS011;64873;50.102;14.434;2023-04-25T12:41:34;7.00;;;2.75;;
76127;SDS011;64873;50.102;14.434;2023-04-25T12:43:59;5.40;;;2.50;;
76127;SDS011;64873;50.102;14.434;2023-04-25T12:46:25;6.85;;;2.40;;
76127;SDS011;64873;50.102;14.434;2023-04-25T12:48:50;12.68;;;2.42;;
76127;SDS011;64873;50.102;14.434;2023-04-25T12:51:16;8.07;;;2.28;;
76127;SDS011;64873;50.102;14.434;2023-04-25T12:53:41;6.50;;;2.40;;
76127;SDS011;64873;50.102;14.434;2023-04-25T12:56:07;5.95;;;2.13;;
76127;SDS011;64873;50.102;14.434;2023-04-25T12:58:33;6.20;;;2.95;;
76127;SDS011;64873;50.102;14.434;2023-04-25T13:00:59;5.90;;;2.40;;
76127;SDS011;64873;50.102;14.434;2023-04-25T13:03:24;6.53;;;2.55;;
76127;SDS011;64873;50.102;14.434;2023-04-25T13:05:50;5.20;;;2.38;;
76127;SDS011;64873;50.102;14.434;2023-04-25T13:08:17;9.60;;;2.33;;
76127;SDS011;64873;50.102;14.434;2023-04-25T13:10:47;3.25;;;1.98;;
76127;SDS011;64873;50.102;14.434;2023-04-25T13:13:12;4.05;;;2.10;;
76127;SDS011;64873;50.102;14.434;2023-04-25T13:15:38;3.10;;;1.88;;
76127;SDS011;64873;50.102;14.434;2023-04-25T13:18:04;5.03;;;1.85;;
76127;SDS011;64873;50.102;14.434;2023-04-25T13:20:33;5.82;;;2.22;;
76127;SDS011;64873;50.102;14.434;2023-04-25T13:22:58;3.83;;;2.05;;
76127;SDS011;64873;50.102;14.434;2023-04-25T13:25:24;5.72;;;2.50;;
76127;SDS011;64873;50.102;14.434;2023-04-25T13:27:49;9.10;;;3.83;;
76127;SDS011;64873;50.102;14.434;2023-04-25T13:30:15;5.03;;;1.92;;
76127;SDS011;64873;50.102;14.434;2023-04-25T13:32:40;4.25;;;2.40;;
76127;SDS011;64873;50.102;14.434;2023-04-25T13:35:07;2.58;;;1.45;;
76127;SDS011;64873;50.102;14.434;2023-04-25T13:37:37;6.35;;;2.20;;
76127;SDS011;64873;50.102;14.434;2023-04-25T13:40:04;2.83;;;1.70;;
76127;SDS011;64873;50.102;14.434;2023-04-25T13:42:34;7.57;;;1.95;;
76127;SDS011;64873;50.102;14.434;2023-04-25T13:45:00;3.25;;;1.95;;
76127;SDS011;64873;50.102;14.434;2023-04-25T13:47:26;6.15;;;1.40;;
76127;SDS011;64873;50.102;14.434;2023-04-25T13:49:52;3.17;;;1.60;;
76127;SDS011;64873;50.102;14.434;2023-04-25T13:52:18;2.85;;;1.48;;
76127;SDS011;64873;50.102;14.434;2023-04-25T13:54:43;3.25;;;1.58;;
76127;SDS011;64873;50.102;14.434;2023-04-25T13:57:08;6.40;;;2.33;;
76127;SDS011;64873;50.102;14.434;2023-04-25T13:59:36;2.45;;;1.63;;
76127;SDS011;64873;50.102;14.434;2023-04-25T14:02:02;2.53;;;1.30;;
76127;SDS011;64873;50.102;14.434;2023-04-25T14:04:27;6.00;;;2.08;;
76127;SDS011;64873;50.102;14.434;2023-04-25T14:06:53;5.32;;;1.55;;
76127;SDS011;64873;50.102;14.434;2023-04-25T14:09:19;2.97;;;1.33;;
76127;SDS011;64873;50.102;14.434;2023-04-25T14:11:46;8.50;;;2.00;;
76127;SDS011;64873;50.102;14.434;2023-04-25T14:14:11;3.47;;;1.60;;
76127;SDS011;64873;50.102;14.434;2023-04-25T14:16:38;5.18;;;1.83;;
76127;SDS011;64873;50.102;14.434;2023-04-25T14:19:03;3.15;;;1.65;;
76127;SDS011;64873;50.102;14.434;2023-04-25T14:21:29;2.53;;;1.30;;
76127;SDS011;64873;50.102;14.434;2023-04-25T14:23:57;5.70;;;1.70;;
76127;SDS011;64873;50.102;14.434;2023-04-25T14:26:22;4.03;;;1.70;;
76127;SDS011;64873;50.102;14.434;2023-04-25T14:28:48;2.55;;;1.40;;
76127;SDS011;64873;50.102;14.434;2023-04-25T14:31:13;3.10;;;1.58;;
76127;SDS011;64873;50.102;14.434;2023-04-25T14:33:38;6.10;;;1.50;;
76127;SDS011;64873;50.102;14.434;2023-04-25T14:36:07;4.07;;;1.58;;